Terminal Aerodrome Forecast
Issued by NWS Missoula, MT

Home | Current Version | Previous Version | Text Only | Print | Product List | Glossary On
Versions: 1 2 3 4 5 6 7 8 9 10 11 12 13 14 15 16 17 18 19 20 21 22 23
000
FTUS45 KMSO 212300
TAFMSO
TAF
KMSO 212320Z 2200/2224 01015G25KT P6SM VCSH FEW040 BKN090
     FM220100 34012KT P6SM VCTS BKN070CB
     FM220300 09010KT P6SM VCSH BKN060
     FM221500 10012KT P6SM -SHRA VCTS BKN030 OVC050CB=

USA.gov is the U.S. government's official web portal to all federal, state and local government web resources and services.